sensor_id;sensor_type;location;lat;lon;timestamp;P1;durP1;ratioP1;P2;durP2;ratioP2
19495;SDS011;9888;48.606;9.630;2022-08-01T00:00:04;6.67;;;3.53;;
19495;SDS011;9888;48.606;9.630;2022-08-01T00:02:33;8.77;;;4.17;;
19495;SDS011;9888;48.606;9.630;2022-08-01T00:05:01;7.20;;;3.80;;
19495;SDS011;9888;48.606;9.630;2022-08-01T00:07:36;10.27;;;3.87;;
19495;SDS011;9888;48.606;9.630;2022-08-01T00:10:04;8.10;;;3.67;;
19495;SDS011;9888;48.606;9.630;2022-08-01T00:12:36;7.70;;;3.90;;
19495;SDS011;9888;48.606;9.630;2022-08-01T00:15:05;7.00;;;3.80;;
19495;SDS011;9888;48.606;9.630;2022-08-01T00:17:34;7.13;;;3.60;;
19495;SDS011;9888;48.606;9.630;2022-08-01T00:20:01;9.03;;;3.87;;
19495;SDS011;9888;48.606;9.630;2022-08-01T00:22:31;7.57;;;3.93;;
19495;SDS011;9888;48.606;9.630;2022-08-01T00:24:58;6.80;;;3.23;;
19495;SDS011;9888;48.606;9.630;2022-08-01T00:27:26;10.70;;;3.70;;
19495;SDS011;9888;48.606;9.630;2022-08-01T00:29:54;8.20;;;3.80;;
19495;SDS011;9888;48.606;9.630;2022-08-01T00:32:25;6.90;;;3.83;;
19495;SDS011;9888;48.606;9.630;2022-08-01T00:34:53;8.43;;;3.80;;
19495;SDS011;9888;48.606;9.630;2022-08-01T00:37:24;8.00;;;4.40;;
19495;SDS011;9888;48.606;9.630;2022-08-01T00:39:51;7.17;;;3.50;;
19495;SDS011;9888;48.606;9.630;2022-08-01T00:42:18;9.40;;;3.93;;
19495;SDS011;9888;48.606;9.630;2022-08-01T00:44:46;8.10;;;3.90;;
19495;SDS011;9888;48.606;9.630;2022-08-01T00:47:14;7.07;;;3.80;;
19495;SDS011;9888;48.606;9.630;2022-08-01T00:49:42;6.90;;;3.63;;
19495;SDS011;9888;48.606;9.630;2022-08-01T00:52:09;7.73;;;4.17;;
19495;SDS011;9888;48.606;9.630;2022-08-01T00:54:37;7.37;;;4.07;;
19495;SDS011;9888;48.606;9.630;2022-08-01T00:57:04;7.50;;;4.20;;
19495;SDS011;9888;48.606;9.630;2022-08-01T00:59:36;7.73;;;3.93;;
19495;SDS011;9888;48.606;9.630;2022-08-01T01:05:00;8.83;;;3.63;;
19495;SDS011;9888;48.606;9.630;2022-08-01T01:07:36;7.17;;;4.03;;
19495;SDS011;9888;48.606;9.630;2022-08-01T01:10:09;8.07;;;3.63;;
19495;SDS011;9888;48.606;9.630;2022-08-01T01:13:30;7.83;;;4.00;;
19495;SDS011;9888;48.606;9.630;2022-08-01T01:15:55;7.77;;;4.37;;
19495;SDS011;9888;48.606;9.630;2022-08-01T01:27:06;7.43;;;4.10;;
19495;SDS011;9888;48.606;9.630;2022-08-01T01:30:03;7.03;;;4.37;;
19495;SDS011;9888;48.606;9.630;2022-08-01T01:32:38;8.03;;;4.17;;
19495;SDS011;9888;48.606;9.630;2022-08-01T01:35:10;9.83;;;4.30;;
19495;SDS011;9888;48.606;9.630;2022-08-01T01:37:44;6.60;;;3.80;;
19495;SDS011;9888;48.606;9.630;2022-08-01T01:40:32;7.73;;;4.10;;
19495;SDS011;9888;48.606;9.630;2022-08-01T01:43:06;8.87;;;4.67;;
19495;SDS011;9888;48.606;9.630;2022-08-01T01:45:37;8.57;;;4.43;;
19495;SDS011;9888;48.606;9.630;2022-08-01T01:48:19;7.23;;;4.00;;
19495;SDS011;9888;48.606;9.630;2022-08-01T01:50:49;8.70;;;4.47;;
19495;SDS011;9888;48.606;9.630;2022-08-01T01:53:20;8.13;;;4.70;;
19495;SDS011;9888;48.606;9.630;2022-08-01T01:55:50;8.20;;;4.20;;
19495;SDS011;9888;48.606;9.630;2022-08-01T01:58:21;7.93;;;4.50;;
19495;SDS011;9888;48.606;9.630;2022-08-01T02:00:51;7.83;;;4.20;;
19495;SDS011;9888;48.606;9.630;2022-08-01T02:03:35;8.27;;;4.03;;
19495;SDS011;9888;48.606;9.630;2022-08-01T02:06:06;8.17;;;4.53;;
19495;SDS011;9888;48.606;9.630;2022-08-01T02:08:33;7.40;;;4.00;;
19495;SDS011;9888;48.606;9.630;2022-08-01T02:11:06;7.50;;;4.17;;
19495;SDS011;9888;48.606;9.630;2022-08-01T02:13:49;9.03;;;4.40;;
19495;SDS011;9888;48.606;9.630;2022-08-01T02:16:25;7.67;;;4.43;;
19495;SDS011;9888;48.606;9.630;2022-08-01T02:19:04;8.40;;;4.57;;
19495;SDS011;9888;48.606;9.630;2022-08-01T02:21:35;7.97;;;4.67;;
19495;SDS011;9888;48.606;9.630;2022-08-01T02:24:12;9.13;;;4.50;;
19495;SDS011;9888;48.606;9.630;2022-08-01T02:27:24;7.37;;;4.17;;
19495;SDS011;9888;48.606;9.630;2022-08-01T02:30:13;10.30;;;4.90;;
19495;SDS011;9888;48.606;9.630;2022-08-01T02:38:43;8.03;;;4.20;;
19495;SDS011;9888;48.606;9.630;2022-08-01T02:41:16;7.57;;;4.33;;
19495;SDS011;9888;48.606;9.630;2022-08-01T02:43:52;7.80;;;4.87;;
19495;SDS011;9888;48.606;9.630;2022-08-01T02:46:28;10.90;;;4.57;;
19495;SDS011;9888;48.606;9.630;2022-08-01T02:49:09;9.60;;;4.90;;
19495;SDS011;9888;48.606;9.630;2022-08-01T02:51:40;7.70;;;4.53;;
19495;SDS011;9888;48.606;9.630;2022-08-01T02:54:09;7.57;;;4.50;;
19495;SDS011;9888;48.606;9.630;2022-08-01T02:59:37;7.50;;;4.50;;
19495;SDS011;9888;48.606;9.630;2022-08-01T03:02:12;7.50;;;4.70;;
19495;SDS011;9888;48.606;9.630;2022-08-01T22:11:36;5.60;;;2.30;;
19495;SDS011;9888;48.606;9.630;2022-08-01T22:14:05;6.57;;;2.60;;
19495;SDS011;9888;48.606;9.630;2022-08-01T22:16:35;5.47;;;2.10;;
19495;SDS011;9888;48.606;9.630;2022-08-01T22:19:09;7.70;;;2.70;;
19495;SDS011;9888;48.606;9.630;2022-08-01T22:21:41;6.47;;;2.40;;
19495;SDS011;9888;48.606;9.630;2022-08-01T22:24:10;6.30;;;2.23;;
19495;SDS011;9888;48.606;9.630;2022-08-01T22:26:38;6.13;;;2.00;;
19495;SDS011;9888;48.606;9.630;2022-08-01T22:29:07;6.00;;;2.10;;
19495;SDS011;9888;48.606;9.630;2022-08-01T22:31:35;5.60;;;1.80;;
19495;SDS011;9888;48.606;9.630;2022-08-01T22:34:02;5.13;;;2.03;;
19495;SDS011;9888;48.606;9.630;2022-08-01T22:36:29;5.37;;;1.73;;
19495;SDS011;9888;48.606;9.630;2022-08-01T22:38:56;6.43;;;2.07;;
19495;SDS011;9888;48.606;9.630;2022-08-01T22:41:29;7.47;;;2.10;;
19495;SDS011;9888;48.606;9.630;2022-08-01T22:44:03;5.13;;;1.87;;
19495;SDS011;9888;48.606;9.630;2022-08-01T22:46:38;11.00;;;2.30;;
19495;SDS011;9888;48.606;9.630;2022-08-01T22:49:12;6.40;;;2.10;;
19495;SDS011;9888;48.606;9.630;2022-08-01T22:51:56;5.73;;;1.90;;
19495;SDS011;9888;48.606;9.630;2022-08-01T22:54:48;5.70;;;2.13;;
19495;SDS011;9888;48.606;9.630;2022-08-01T22:57:29;6.27;;;2.30;;
19495;SDS011;9888;48.606;9.630;2022-08-01T23:00:12;5.90;;;2.23;;
19495;SDS011;9888;48.606;9.630;2022-08-01T23:02:43;6.00;;;2.40;;
19495;SDS011;9888;48.606;9.630;2022-08-01T23:05:22;6.17;;;2.43;;
19495;SDS011;9888;48.606;9.630;2022-08-01T23:07:52;5.70;;;2.00;;
19495;SDS011;9888;48.606;9.630;2022-08-01T23:10:21;5.53;;;2.07;;
19495;SDS011;9888;48.606;9.630;2022-08-01T23:12:51;5.67;;;1.80;;
19495;SDS011;9888;48.606;9.630;2022-08-01T23:15:20;7.17;;;2.30;;
19495;SDS011;9888;48.606;9.630;2022-08-01T23:17:48;5.87;;;2.30;;
19495;SDS011;9888;48.606;9.630;2022-08-01T23:20:16;6.07;;;2.00;;
19495;SDS011;9888;48.606;9.630;2022-08-01T23:22:43;5.43;;;2.07;;
19495;SDS011;9888;48.606;9.630;2022-08-01T23:25:12;7.07;;;2.07;;
19495;SDS011;9888;48.606;9.630;2022-08-01T23:27:44;6.30;;;2.20;;
19495;SDS011;9888;48.606;9.630;2022-08-01T23:30:12;5.70;;;2.00;;
19495;SDS011;9888;48.606;9.630;2022-08-01T23:32:39;5.20;;;2.00;;
19495;SDS011;9888;48.606;9.630;2022-08-01T23:35:06;5.37;;;2.10;;
19495;SDS011;9888;48.606;9.630;2022-08-01T23:37:34;5.73;;;2.17;;
19495;SDS011;9888;48.606;9.630;2022-08-01T23:40:03;5.50;;;2.17;;
19495;SDS011;9888;48.606;9.630;2022-08-01T23:42:30;5.20;;;1.87;;
19495;SDS011;9888;48.606;9.630;2022-08-01T23:44:58;5.27;;;1.90;;
19495;SDS011;9888;48.606;9.630;2022-08-01T23:47:25;5.10;;;1.90;;
19495;SDS011;9888;48.606;9.630;2022-08-01T23:49:52;5.13;;;1.80;;
19495;SDS011;9888;48.606;9.630;2022-08-01T23:52:20;7.10;;;1.70;;
19495;SDS011;9888;48.606;9.630;2022-08-01T23:54:47;5.53;;;1.83;;
19495;SDS011;9888;48.606;9.630;2022-08-01T23:57:14;6.07;;;2.03;;
19495;SDS011;9888;48.606;9.630;2022-08-01T23:59:42;5.30;;;2.07;;
